createdAt,value
2023-03-20T00:01:47.101Z,53.37
2023-03-20T00:04:13.912Z,49.20
2023-03-20T00:06:40.544Z,45.27
2023-03-20T00:09:08.359Z,45.10
2023-03-20T00:11:48.267Z,45.57
2023-03-20T00:14:16.010Z,42.57
2023-03-20T00:16:43.760Z,41.60
2023-03-20T00:19:32.089Z,40.17
2023-03-20T00:21:58.910Z,38.70
2023-03-20T00:24:25.524Z,40.17
2023-03-20T00:26:52.547Z,41.07
2023-03-20T00:29:19.191Z,39.17
2023-03-20T00:31:45.835Z,38.07
2023-03-20T00:34:14.173Z,44.20
2023-03-20T00:36:41.119Z,38.47
2023-03-20T00:39:07.812Z,37.93
2023-03-20T00:41:51.097Z,37.50
2023-03-20T00:44:30.047Z,38.87
2023-03-20T00:47:19.836Z,37.03
2023-03-20T00:49:47.241Z,41.43
2023-03-20T00:52:15.183Z,37.83
2023-03-20T00:54:41.682Z,39.10
2023-03-20T00:57:12.197Z,44.90
2023-03-20T00:59:41.569Z,40.50
2023-03-20T01:02:08.443Z,40.77
2023-03-20T01:04:36.876Z,42.90
2023-03-20T01:07:03.923Z,38.97
2023-03-20T01:09:30.510Z,42.97
2023-03-20T01:11:58.595Z,41.60
2023-03-20T01:14:25.321Z,40.73
2023-03-20T01:16:51.890Z,40.40
2023-03-20T01:19:18.445Z,41.23
2023-03-20T01:21:45.081Z,46.13
2023-03-20T01:24:11.919Z,43.67
2023-03-20T01:26:39.824Z,44.80
2023-03-20T01:29:23.309Z,40.93
2023-03-20T01:31:50.517Z,45.67
2023-03-20T01:34:17.185Z,45.47
2023-03-20T01:36:49.807Z,39.23
2023-03-20T01:39:17.138Z,42.83
2023-03-20T01:41:43.736Z,45.97
2023-03-20T01:44:18.049Z,40.20
2023-03-20T01:46:44.983Z,48.60
2023-03-20T01:49:20.738Z,48.93
2023-03-20T01:51:47.946Z,51.97
2023-03-20T01:54:19.537Z,47.93
2023-03-20T01:56:51.986Z,44.27
2023-03-20T01:59:21.803Z,55.63
2023-03-20T02:01:48.393Z,47.67
2023-03-20T02:04:16.885Z,53.20
2023-03-20T02:06:45.246Z,52.30
2023-03-20T02:09:11.867Z,51.63
2023-03-20T02:11:40.246Z,47.83
2023-03-20T02:14:07.454Z,51.83
2023-03-20T02:16:34.041Z,47.37
2023-03-20T02:19:00.826Z,55.50
2023-03-20T02:21:30.460Z,52.40
2023-03-20T02:24:00.294Z,52.53
2023-03-20T02:26:33.132Z,52.50
2023-03-20T02:29:18.680Z,50.53
2023-03-20T02:32:04.063Z,45.90
2023-03-20T02:35:00.163Z,53.07
2023-03-20T02:37:45.278Z,63.83
2023-03-20T02:40:17.760Z,60.57
2023-03-20T02:42:47.587Z,54.03
2023-03-20T02:45:28.210Z,65.53
2023-03-20T02:48:13.481Z,63.27
2023-03-20T02:50:46.076Z,66.53
2023-03-20T02:53:12.927Z,69.37
2023-03-20T02:55:46.097Z,65.50
2023-03-20T02:58:15.790Z,68.63
2023-03-20T03:00:47.560Z,81.20
2023-03-20T03:03:17.182Z,77.77
2023-03-20T03:05:49.993Z,69.57
2023-03-20T03:08:18.765Z,84.03
2023-03-20T03:10:47.928Z,75.20
2023-03-20T03:13:17.190Z,77.90
2023-03-20T03:15:46.255Z,83.73
2023-03-20T03:18:14.676Z,84.70
2023-03-20T03:20:43.291Z,81.33
2023-03-20T03:23:15.001Z,77.23
2023-03-20T03:25:42.091Z,76.03
2023-03-20T03:28:21.664Z,73.47
2023-03-20T03:30:49.112Z,76.20
2023-03-20T03:33:20.693Z,86.03
2023-03-20T03:35:47.920Z,73.77
2023-03-20T03:38:21.750Z,78.73
2023-03-20T03:41:06.647Z,70.67
2023-03-20T03:43:45.282Z,74.93
2023-03-20T03:46:14.658Z,69.43
2023-03-20T03:48:52.712Z,71.43
2023-03-20T03:51:27.908Z,71.07
2023-03-20T03:53:56.163Z,67.53
2023-03-20T03:56:24.056Z,69.90
2023-03-20T03:58:54.823Z,74.33
2023-03-20T04:01:22.492Z,76.67
2023-03-20T04:03:50.760Z,75.30
2023-03-20T04:06:17.947Z,78.53
2023-03-20T04:08:44.640Z,79.23
2023-03-20T04:11:18.565Z,69.53
2023-03-20T04:13:47.413Z,72.90
2023-03-20T04:16:33.936Z,69.30
2023-03-20T04:19:20.433Z,66.77
2023-03-20T04:21:47.399Z,67.33
2023-03-20T04:24:15.401Z,75.67
2023-03-20T04:26:42.042Z,74.17
2023-03-20T04:29:08.785Z,86.50
2023-03-20T04:31:35.920Z,69.40
2023-03-20T04:34:02.509Z,70.97
2023-03-20T04:36:29.463Z,66.83
2023-03-20T04:38:57.678Z,69.63
2023-03-20T04:41:24.316Z,74.20
2023-03-20T04:43:50.982Z,72.87
2023-03-20T04:46:17.824Z,74.23
2023-03-20T04:48:44.389Z,75.10
2023-03-20T04:51:11.367Z,76.20
2023-03-20T04:53:38.021Z,77.93
2023-03-20T04:56:04.640Z,78.63
2023-03-20T04:58:31.276Z,81.40
2023-03-20T05:00:57.887Z,78.80
2023-03-20T05:03:24.602Z,71.37
2023-03-20T05:05:51.120Z,81.70
2023-03-20T05:08:17.689Z,79.17
2023-03-20T05:10:44.272Z,78.73
2023-03-20T05:13:11.005Z,81.77
2023-03-20T05:15:37.895Z,72.37
2023-03-20T05:18:04.476Z,73.60
2023-03-20T05:20:31.024Z,69.57
2023-03-20T05:22:57.540Z,70.73
2023-03-20T05:25:24.119Z,70.73
2023-03-20T05:27:50.670Z,74.93
2023-03-20T05:30:17.429Z,70.93
2023-03-20T05:32:44.041Z,66.07
2023-03-20T05:35:11.073Z,69.03
2023-03-20T05:37:38.536Z,67.23
2023-03-20T05:40:06.116Z,66.90
2023-03-20T05:42:32.722Z,63.47
2023-03-20T05:44:59.294Z,65.93
2023-03-20T05:47:26.356Z,67.27
2023-03-20T05:49:53.004Z,68.53
2023-03-20T05:52:19.615Z,64.83
2023-03-20T05:54:46.191Z,63.47
2023-03-20T05:57:13.438Z,62.10
2023-03-20T05:59:40.119Z,63.63
2023-03-20T06:02:06.649Z,55.83
2023-03-20T06:04:35.005Z,58.47
2023-03-20T06:07:01.519Z,58.97
2023-03-20T06:09:28.117Z,54.93
2023-03-20T06:11:54.627Z,55.70
2023-03-20T06:14:21.125Z,52.10
2023-03-20T06:16:47.773Z,47.43
2023-03-20T06:19:14.420Z,48.90
2023-03-20T06:21:41.117Z,46.43
2023-03-20T06:24:07.765Z,44.33
2023-03-20T06:26:34.282Z,49.30
2023-03-20T06:29:00.880Z,45.33
2023-03-20T06:31:27.597Z,50.63
2023-03-20T06:33:54.190Z,43.10
2023-03-20T06:36:20.978Z,45.53
2023-03-20T06:38:47.553Z,44.10
2023-03-20T06:41:27.838Z,43.77
2023-03-20T06:44:00.228Z,44.93
2023-03-20T06:46:26.844Z,44.67
2023-03-20T06:48:53.592Z,47.00
2023-03-20T06:51:20.349Z,44.20
2023-03-20T06:53:46.895Z,50.50
2023-03-20T06:56:13.440Z,42.27
2023-03-20T06:58:40.105Z,43.70
2023-03-20T07:01:13.370Z,47.40
2023-03-20T07:03:40.278Z,42.47
2023-03-20T07:06:07.080Z,47.13
2023-03-20T07:08:35.281Z,42.27
2023-03-20T07:11:02.675Z,38.77
2023-03-20T07:13:29.738Z,40.40
2023-03-20T07:16:04.456Z,35.43
2023-03-20T07:18:31.685Z,38.47
2023-03-20T07:20:59.694Z,36.67
2023-03-20T07:23:26.535Z,36.27
2023-03-20T07:25:53.175Z,33.80
2023-03-20T07:28:19.921Z,35.80
2023-03-20T07:30:48.310Z,34.20
2023-03-20T07:33:19.365Z,32.20
2023-03-20T07:35:46.659Z,32.43
2023-03-20T07:38:13.692Z,31.93
2023-03-20T07:40:40.618Z,30.87
2023-03-20T07:43:07.568Z,31.87
2023-03-20T07:45:34.429Z,34.27
2023-03-20T07:48:04.482Z,33.50
2023-03-20T07:53:11.933Z,33.53
2023-03-20T07:55:38.976Z,33.17
2023-03-20T07:58:06.081Z,30.40
2023-03-20T08:00:34.243Z,32.27
2023-03-20T08:03:01.045Z,29.57
2023-03-20T08:05:27.778Z,31.67
2023-03-20T08:07:55.849Z,28.80
2023-03-20T08:10:42.416Z,27.43
2023-03-20T08:13:21.305Z,27.37
2023-03-20T08:15:48.862Z,31.63
2023-03-20T08:18:15.743Z,28.03
2023-03-20T08:20:43.536Z,29.97
2023-03-20T08:23:11.299Z,32.67
2023-03-20T08:25:39.124Z,28.83
2023-03-20T08:28:08.893Z,31.90
2023-03-20T08:30:35.758Z,31.40
2023-03-20T08:33:02.539Z,33.73
2023-03-20T08:35:33.683Z,28.57
2023-03-20T08:38:01.453Z,32.03
2023-03-20T08:40:29.115Z,27.67
2023-03-20T08:42:56.118Z,29.30
2023-03-20T08:45:26.249Z,29.33
2023-03-20T08:47:54.221Z,27.93
2023-03-20T08:50:21.609Z,27.27
2023-03-20T08:52:49.489Z,27.27
2023-03-20T08:55:18.241Z,25.17
2023-03-20T08:57:45.820Z,23.50
2023-03-20T09:00:14.518Z,21.63
2023-03-20T09:02:43.018Z,23.17
2023-03-20T09:05:10.261Z,16.43
2023-03-20T09:07:37.233Z,17.03
2023-03-20T09:10:04.698Z,14.20
2023-03-20T09:12:32.977Z,16.23
2023-03-20T09:14:59.926Z,15.03
2023-03-20T09:17:30.027Z,15.10
2023-03-20T09:19:56.987Z,18.07
2023-03-20T09:22:24.670Z,11.63
2023-03-20T09:24:51.481Z,12.33
2023-03-20T09:27:19.072Z,13.13
2023-03-20T09:29:46.039Z,12.73
2023-03-20T09:32:15.196Z,10.37
2023-03-20T09:34:42.404Z,11.87
2023-03-20T09:37:09.362Z,11.80
2023-03-20T09:39:44.104Z,11.83
2023-03-20T09:45:58.372Z,11.53
2023-03-20T09:48:31.325Z,10.63
2023-03-20T09:53:46.209Z,10.87
2023-03-20T09:56:26.379Z,12.77
2023-03-20T09:59:01.666Z,11.90
2023-03-20T10:01:37.150Z,9.10
2023-03-20T10:04:09.121Z,10.10
2023-03-20T10:06:36.176Z,11.50
2023-03-20T10:09:04.246Z,8.87
2023-03-20T10:11:30.748Z,8.60
2023-03-20T10:14:06.911Z,8.53
2023-03-20T10:16:39.818Z,9.80
2023-03-20T10:19:26.913Z,7.87
2023-03-20T10:22:12.720Z,10.70
2023-03-20T10:24:41.275Z,8.67
2023-03-20T10:27:26.248Z,13.17
2023-03-20T10:29:59.999Z,11.43
2023-03-20T10:32:33.133Z,9.63
2023-03-20T10:35:05.837Z,10.07
2023-03-20T10:37:39.884Z,9.10
2023-03-20T10:40:06.521Z,8.50
2023-03-20T10:42:37.157Z,10.30
2023-03-20T10:45:07.903Z,8.17
2023-03-20T10:47:39.428Z,8.93
2023-03-20T10:50:09.401Z,10.17
2023-03-20T10:52:46.155Z,12.67
2023-03-20T10:55:29.516Z,10.63
2023-03-20T10:58:16.421Z,8.80
2023-03-20T11:00:44.508Z,8.07
2023-03-20T11:03:32.155Z,8.50
2023-03-20T11:06:11.304Z,7.73
2023-03-20T11:08:40.941Z,8.43
2023-03-20T11:11:07.772Z,8.97
2023-03-20T11:13:38.792Z,6.57
2023-03-20T11:16:23.083Z,8.47
2023-03-20T11:18:51.134Z,8.07
2023-03-20T11:21:28.705Z,8.90
2023-03-20T11:23:56.958Z,7.83
2023-03-20T11:26:49.162Z,10.20
2023-03-20T11:29:51.263Z,10.93
2023-03-20T11:35:24.109Z,10.87
2023-03-20T11:38:13.704Z,9.90
2023-03-20T11:40:40.510Z,8.53
2023-03-20T11:43:12.945Z,7.87
2023-03-20T11:45:41.021Z,9.87
2023-03-20T11:48:15.288Z,9.93
2023-03-20T11:50:46.014Z,6.70
2023-03-20T11:53:38.256Z,9.07
2023-03-20T11:56:21.366Z,8.47
2023-03-20T11:58:51.889Z,6.07
2023-03-20T12:01:43.815Z,6.63
2023-03-20T12:06:59.158Z,9.40
2023-03-20T12:09:25.979Z,7.33
2023-03-20T12:11:56.353Z,6.83
2023-03-20T12:14:27.203Z,6.57
2023-03-20T12:16:57.833Z,7.40
2023-03-20T12:19:32.250Z,7.17
2023-03-20T12:22:07.743Z,7.33
2023-03-20T12:24:42.418Z,7.13
2023-03-20T12:27:41.420Z,7.80
2023-03-20T12:30:31.254Z,7.60
2023-03-20T12:33:17.834Z,6.80
2023-03-20T12:35:59.304Z,8.00
2023-03-20T12:38:33.739Z,9.43
2023-03-20T12:44:18.743Z,7.40
2023-03-20T12:47:03.996Z,7.30
2023-03-20T12:49:50.860Z,6.07
2023-03-20T12:52:17.492Z,6.70
2023-03-20T12:54:59.472Z,7.47
2023-03-20T12:57:34.991Z,7.43
2023-03-20T13:00:06.276Z,6.83
2023-03-20T13:02:33.819Z,8.53
2023-03-20T13:05:11.528Z,5.13
2023-03-20T13:07:57.773Z,5.03
2023-03-20T13:10:28.310Z,5.33
2023-03-20T13:13:13.698Z,5.17
2023-03-20T13:15:59.279Z,6.90
2023-03-20T13:18:38.021Z,4.67
2023-03-20T13:21:11.590Z,7.33
2023-03-20T13:23:49.109Z,6.87
2023-03-20T13:26:24.867Z,5.30
2023-03-20T13:29:03.822Z,6.47
2023-03-20T13:31:39.720Z,6.20
2023-03-20T13:34:11.515Z,7.93
2023-03-20T13:36:50.501Z,6.27
2023-03-20T13:42:10.579Z,5.27
2023-03-20T13:44:38.894Z,5.87
2023-03-20T13:47:17.601Z,8.43
2023-03-20T13:49:47.252Z,4.83
2023-03-20T13:52:19.933Z,5.00
2023-03-20T13:55:10.445Z,6.00
2023-03-20T13:57:46.563Z,7.17
2023-03-20T14:00:33.807Z,5.63
2023-03-20T14:03:19.757Z,6.43
2023-03-20T14:05:48.575Z,6.67
2023-03-20T14:08:21.535Z,7.60
2023-03-20T14:10:50.114Z,6.03
2023-03-20T14:13:20.252Z,5.93
2023-03-20T14:15:53.822Z,5.37
2023-03-20T14:18:22.986Z,6.43
2023-03-20T14:21:01.087Z,5.57
2023-03-20T14:23:33.939Z,5.87
2023-03-20T14:26:04.680Z,10.60
2023-03-20T14:28:43.615Z,8.70
2023-03-20T14:31:14.073Z,8.00
2023-03-20T14:33:44.839Z,6.73
2023-03-20T14:36:12.939Z,9.07
2023-03-20T14:38:44.773Z,6.47
2023-03-20T14:41:24.106Z,5.63
2023-03-20T14:43:50.884Z,5.00
2023-03-20T14:46:27.626Z,5.13
2023-03-20T14:51:46.049Z,6.00
2023-03-20T14:54:21.881Z,7.00
2023-03-20T14:56:52.324Z,6.77
2023-03-20T14:59:23.002Z,7.43
2023-03-20T15:01:58.867Z,8.00
2023-03-20T15:04:30.650Z,7.93
2023-03-20T15:06:57.309Z,7.37
2023-03-20T15:09:25.784Z,11.30
2023-03-20T15:11:52.855Z,7.03
2023-03-20T15:14:27.509Z,11.30
2023-03-20T15:16:58.757Z,5.73
2023-03-20T15:19:25.550Z,6.67
2023-03-20T15:21:53.869Z,5.97
2023-03-20T15:24:24.917Z,5.23
2023-03-20T15:26:54.145Z,8.73
2023-03-20T15:29:22.493Z,7.50
2023-03-20T15:32:12.341Z,4.70
2023-03-20T15:34:41.411Z,10.27
2023-03-20T15:37:28.399Z,5.93
2023-03-20T15:40:00.088Z,7.90
2023-03-20T15:42:27.741Z,7.23
2023-03-20T15:44:56.045Z,6.47
2023-03-20T15:47:24.099Z,8.90
2023-03-20T15:49:56.302Z,6.33
2023-03-20T15:52:43.563Z,7.37
2023-03-20T15:55:17.960Z,5.90
2023-03-20T15:57:47.304Z,5.97
2023-03-20T16:00:26.349Z,6.40
2023-03-20T16:03:05.181Z,7.50
2023-03-20T16:05:32.054Z,8.20
2023-03-20T16:08:11.833Z,7.67
2023-03-20T16:10:41.711Z,6.33
2023-03-20T16:13:12.493Z,10.10
2023-03-20T16:15:40.263Z,7.70
2023-03-20T16:18:07.337Z,8.57
2023-03-20T16:20:37.431Z,9.10
2023-03-20T16:23:07.061Z,12.73
2023-03-20T16:25:34.617Z,9.40
2023-03-20T16:28:01.611Z,11.63
2023-03-20T16:30:31.656Z,11.33
2023-03-20T16:33:05.700Z,10.47
2023-03-20T16:35:37.130Z,15.07
2023-03-20T16:38:14.524Z,10.40
2023-03-20T16:40:41.449Z,12.70
2023-03-20T16:43:16.761Z,12.43
2023-03-20T16:45:49.390Z,12.30
2023-03-20T16:48:16.066Z,10.87
2023-03-20T16:50:48.469Z,11.73
2023-03-20T16:53:16.411Z,11.03
2023-03-20T16:55:50.605Z,13.13
2023-03-20T16:58:21.998Z,12.23
2023-03-20T17:00:53.373Z,11.40
2023-03-20T17:03:26.477Z,10.27
2023-03-20T17:05:55.416Z,10.63
2023-03-20T17:08:30.903Z,8.83
2023-03-20T17:10:59.678Z,8.73
2023-03-20T17:13:26.419Z,11.77
2023-03-20T17:15:53.117Z,11.20
2023-03-20T17:18:19.885Z,10.67
2023-03-20T17:20:46.656Z,8.77
2023-03-20T17:23:19.392Z,9.60
2023-03-20T17:25:48.616Z,8.47
2023-03-20T17:28:20.717Z,7.73
2023-03-20T17:30:48.657Z,9.10
2023-03-20T17:33:16.523Z,8.50
2023-03-20T17:35:43.551Z,10.53
2023-03-20T17:38:21.658Z,8.73
2023-03-20T17:40:49.457Z,10.63
2023-03-20T17:43:16.933Z,10.57
2023-03-20T17:45:44.999Z,9.83
2023-03-20T17:48:16.390Z,10.40
2023-03-20T17:50:43.740Z,8.80
2023-03-20T17:53:32.377Z,11.37
2023-03-20T17:55:59.032Z,9.97
2023-03-20T17:58:25.797Z,9.80
2023-03-20T18:01:18.283Z,12.30
2023-03-20T18:03:45.351Z,10.77
2023-03-20T18:06:38.122Z,11.60
2023-03-20T18:09:09.890Z,12.10
2023-03-20T18:11:37.215Z,11.60
2023-03-20T18:14:04.224Z,11.67
2023-03-20T18:16:43.640Z,14.73
2023-03-20T18:22:42.246Z,9.80
2023-03-20T18:25:09.223Z,8.53
2023-03-20T18:27:38.661Z,9.83
2023-03-20T18:30:16.185Z,14.33
2023-03-20T18:32:42.865Z,14.80
2023-03-20T18:35:09.712Z,12.47
2023-03-20T18:37:36.616Z,10.73
2023-03-20T18:40:03.767Z,10.03
2023-03-20T18:42:34.244Z,11.83
2023-03-20T18:45:01.005Z,13.47
2023-03-20T18:47:27.871Z,13.33
2023-03-20T18:49:54.516Z,15.40
2023-03-20T18:52:21.173Z,12.90
2023-03-20T18:54:47.939Z,15.47
2023-03-20T18:57:14.970Z,15.47
2023-03-20T18:59:41.624Z,14.23
2023-03-20T19:02:08.441Z,15.97
2023-03-20T19:04:35.711Z,15.50
2023-03-20T19:07:02.494Z,14.50
2023-03-20T19:09:29.172Z,15.40
2023-03-20T19:11:56.008Z,13.97
2023-03-20T19:14:22.799Z,14.37
2023-03-20T19:16:51.136Z,15.33
2023-03-20T19:19:17.782Z,19.30
2023-03-20T19:21:45.076Z,15.80
2023-03-20T19:24:11.968Z,16.33
2023-03-20T19:26:38.660Z,16.33
2023-03-20T19:29:10.327Z,18.33
2023-03-20T19:31:37.404Z,18.73
2023-03-20T19:34:04.194Z,17.63
2023-03-20T19:36:32.536Z,19.80
2023-03-20T19:39:00.298Z,21.20
2023-03-20T19:41:28.831Z,18.93
2023-03-20T19:43:56.255Z,20.47
2023-03-20T19:46:38.632Z,19.77
2023-03-20T19:49:07.011Z,19.23
2023-03-20T19:51:33.968Z,24.77
2023-03-20T19:54:00.802Z,23.97
2023-03-20T19:56:27.532Z,31.07
2023-03-20T19:58:54.814Z,25.40
2023-03-20T20:01:23.426Z,24.43
2023-03-20T20:03:51.303Z,26.27
2023-03-20T20:06:21.311Z,26.10
2023-03-20T20:08:49.407Z,29.70
2023-03-20T20:11:20.649Z,30.00
2023-03-20T20:14:04.834Z,29.77
2023-03-20T20:16:32.967Z,31.30
2023-03-20T20:18:59.804Z,28.27
2023-03-20T20:24:13.296Z,31.27
2023-03-20T20:26:49.467Z,32.00
2023-03-20T20:29:20.394Z,34.80
2023-03-20T20:31:47.103Z,37.57
2023-03-20T20:39:47.465Z,36.03
2023-03-20T20:42:14.426Z,35.83
2023-03-20T20:44:41.377Z,39.03
2023-03-20T20:47:08.275Z,36.53
2023-03-20T20:49:34.924Z,36.23
2023-03-20T20:52:01.548Z,39.90
2023-03-20T20:54:29.042Z,36.73
2023-03-20T20:56:56.210Z,40.17
2023-03-20T20:59:22.854Z,38.27
2023-03-20T21:01:50.617Z,39.53
2023-03-20T21:04:17.556Z,38.80
2023-03-20T21:07:08.712Z,40.23
2023-03-20T21:09:30.744Z,44.27
2023-03-20T21:11:57.467Z,42.73
2023-03-20T21:14:24.297Z,48.27
2023-03-20T21:16:50.932Z,44.00
2023-03-20T21:19:17.548Z,46.93
2023-03-20T21:21:44.309Z,44.63
2023-03-20T21:24:30.886Z,44.83
2023-03-20T21:27:01.644Z,45.60
2023-03-20T21:29:28.395Z,44.20
2023-03-20T21:31:55.039Z,51.50
2023-03-20T21:34:21.968Z,48.53
2023-03-20T21:36:49.371Z,43.87
2023-03-20T21:39:17.047Z,45.00
2023-03-20T21:41:43.716Z,43.13
2023-03-20T21:44:16.730Z,46.07
2023-03-20T21:47:22.652Z,47.17
2023-03-20T21:50:23.523Z,41.27
2023-03-20T21:53:12.436Z,42.80
2023-03-20T21:56:09.335Z,44.10
2023-03-20T22:01:23.147Z,41.73
2023-03-20T22:03:52.005Z,39.43
2023-03-20T22:07:09.540Z,45.10
2023-03-20T22:12:52.867Z,46.23
2023-03-20T22:15:20.095Z,40.53
2023-03-20T22:17:56.230Z,42.77
2023-03-20T22:31:55.282Z,44.23
2023-03-20T22:34:39.833Z,45.00
2023-03-20T22:40:24.842Z,42.87
2023-03-20T22:42:51.492Z,52.40
2023-03-20T22:45:10.969Z,51.83
2023-03-20T22:47:37.833Z,43.43
2023-03-20T22:50:04.930Z,49.27
2023-03-20T22:52:47.715Z,47.73
2023-03-20T22:55:15.875Z,51.20
2023-03-20T22:57:50.060Z,54.87
2023-03-20T23:00:22.785Z,50.67
2023-03-20T23:02:49.581Z,49.50
2023-03-20T23:05:16.700Z,48.33
2023-03-20T23:07:43.387Z,55.03
2023-03-20T23:10:10.654Z,52.53
2023-03-20T23:12:38.211Z,48.23
2023-03-20T23:15:06.123Z,48.80
2023-03-20T23:17:32.872Z,51.93
2023-03-20T23:20:10.821Z,44.90
2023-03-20T23:22:42.594Z,46.53
2023-03-20T23:25:18.655Z,44.07
2023-03-20T23:27:50.585Z,45.80
2023-03-20T23:30:17.583Z,47.60
2023-03-20T23:32:44.173Z,43.07
2023-03-20T23:35:10.929Z,46.40
2023-03-20T23:37:37.568Z,44.00
2023-03-20T23:40:04.648Z,43.27
2023-03-20T23:42:31.455Z,42.07
2023-03-20T23:45:04.365Z,46.00
2023-03-20T23:47:43.971Z,42.40
2023-03-20T23:50:14.567Z,42.17
2023-03-20T23:52:49.995Z,39.03
2023-03-20T23:55:22.465Z,43.10
2023-03-20T23:57:49.258Z,44.83
